Time;durP1;ratioP1;P1;durP2;ratioP2;P2;SDS_P1;SDS_P2;PMS_P1;PMS_P2;Temp;Humidity;BMP_temperature;BMP_pressure;BME280_temperature;BME280_humidity;BME280_pressure;Samples;Min_cycle;Max_cycle;Signal;HPM_P1;HPM_P2
2023/12/12 00:00:32;;;;;;;0.50;0.50;;;6.90;99.90;;;;;;5004809;28;20186;-85
2023/12/12 00:03:02;;;;;;;0.40;0.40;;;6.90;99.90;;;;;;5004209;28;20210;-83
2023/12/12 00:05:28;;;;;;;0.70;0.70;;;7.00;99.90;;;;;;5013879;28;20213;-87
2023/12/12 00:07:56;;;;;;;0.40;0.40;;;6.90;99.90;;;;;;5005075;28;20269;-83
2023/12/12 00:10:23;;;;;;;0.40;0.40;;;6.90;99.90;;;;;;5000965;28;20233;-86
2023/12/12 00:12:52;;;;;;;0.85;0.68;;;7.00;99.90;;;;;;5008189;28;20518;-88
2023/12/12 00:15:19;;;;;;;1.70;1.60;;;6.90;99.90;;;;;;5006542;28;20213;-82
2023/12/12 00:17:46;;;;;;;0.80;0.80;;;7.00;99.90;;;;;;5009979;28;20206;-89
2023/12/12 00:20:14;;;;;;;0.40;0.40;;;6.90;99.90;;;;;;5009708;28;20210;-87
2023/12/12 00:22:41;;;;;;;0.50;0.50;;;6.90;99.90;;;;;;5165867;23;20211;-86
2023/12/12 00:25:08;;;;;;;0.40;0.40;;;7.00;99.90;;;;;;5077597;23;20228;-86
2023/12/12 00:27:37;;;;;;;0.40;0.40;;;7.00;99.90;;;;;;5059270;23;20252;-85
2023/12/12 00:30:04;;;;;;;0.70;0.70;;;7.10;99.90;;;;;;5018182;28;20247;-89
2023/12/12 00:32:31;;;;;;;0.68;0.68;;;7.10;99.90;;;;;;5027504;28;20201;-87
2023/12/12 00:34:59;;;;;;;0.40;0.40;;;7.30;99.90;;;;;;5034448;28;20204;-83
2023/12/12 00:37:26;;;;;;;0.45;0.45;;;7.10;99.90;;;;;;5019901;28;20262;-81
2023/12/12 00:39:53;;;;;;;0.40;0.40;;;7.20;99.90;;;;;;5025612;28;20210;-86
2023/12/12 00:42:20;;;;;;;0.80;0.80;;;7.00;99.90;;;;;;5025169;28;20185;-86
2023/12/12 00:44:47;;;;;;;0.70;0.70;;;7.10;99.90;;;;;;5028759;28;20189;-80
2023/12/12 00:47:15;;;;;;;0.50;0.50;;;7.20;99.90;;;;;;5026507;28;20186;-82
2023/12/12 00:49:41;;;;;;;0.40;0.40;;;7.10;99.90;;;;;;5010443;28;20209;-86
2023/12/12 00:52:11;;;;;;;0.82;0.82;;;7.10;99.90;;;;;;5014208;28;20209;-84
2023/12/12 00:54:38;;;;;;;1.02;1.02;;;7.10;99.90;;;;;;5007153;28;20212;-90
2023/12/12 00:57:05;;;;;;;0.40;0.40;;;7.00;99.90;;;;;;5023821;28;20213;-85
2023/12/12 00:59:39;;;;;;;0.40;0.40;;;7.10;99.90;;;;;;5171789;23;20616;-89
2023/12/12 01:02:08;;;;;;;0.50;0.50;;;7.10;99.90;;;;;;5011816;28;20269;-83
2023/12/12 01:04:36;;;;;;;0.80;0.80;;;7.00;99.90;;;;;;4997175;28;20209;-87
2023/12/12 01:07:03;;;;;;;0.40;0.40;;;7.00;99.90;;;;;;5118258;23;20569;-87
2023/12/12 01:09:30;;;;;;;0.40;0.40;;;7.10;99.90;;;;;;4981306;28;20210;-81
2023/12/12 01:11:58;;;;;;;1.98;1.88;;;6.90;99.90;;;;;;4978900;28;20692;-87
2023/12/12 01:14:26;;;;;;;0.77;0.77;;;7.00;99.90;;;;;;4993594;28;20207;-83
2023/12/12 01:16:53;;;;;;;0.40;0.40;;;7.00;99.90;;;;;;4984177;28;20207;-85
2023/12/12 01:19:21;;;;;;;1.30;0.82;;;6.90;99.90;;;;;;4974793;28;20223;-84
2023/12/12 01:21:48;;;;;;;0.50;0.50;;;7.00;99.90;;;;;;4982807;28;20212;-82
2023/12/12 01:24:15;;;;;;;0.50;0.50;;;6.90;99.90;;;;;;4984875;28;20211;-81
2023/12/12 01:26:42;;;;;;;1.05;1.05;;;6.90;99.90;;;;;;4976982;28;20400;-83
2023/12/12 01:29:14;;;;;;;0.55;0.55;;;7.00;99.90;;;;;;4983773;28;20275;-83
2023/12/12 01:31:44;;;;;;;0.70;0.70;;;7.00;99.90;;;;;;4978144;28;20638;-86
2023/12/12 01:34:12;;;;;;;0.47;0.47;;;7.00;99.90;;;;;;4978219;28;20191;-88
2023/12/12 01:36:39;;;;;;;0.40;0.40;;;7.00;99.90;;;;;;4991412;28;20206;-85
2023/12/12 01:39:06;;;;;;;0.50;0.50;;;7.00;99.90;;;;;;4972922;28;20206;-88
2023/12/12 01:41:34;;;;;;;0.40;0.40;;;7.00;99.90;;;;;;4980612;28;20212;-86
2023/12/12 01:44:00;;;;;;;0.40;0.40;;;7.00;99.90;;;;;;4980759;28;20443;-81
2023/12/12 01:46:30;;;;;;;0.40;0.40;;;7.10;99.90;;;;;;4968426;28;20240;-83
2023/12/12 01:48:57;;;;;;;9.77;0.95;;;7.00;99.90;;;;;;4977094;28;20219;-85
2023/12/12 01:51:25;;;;;;;0.40;0.40;;;7.30;99.90;;;;;;4986703;28;20258;-85
2023/12/12 01:53:52;;;;;;;0.40;0.40;;;7.20;99.90;;;;;;4990166;28;20235;-84
2023/12/12 01:56:20;;;;;;;0.40;0.40;;;7.10;99.90;;;;;;4980503;28;20203;-83
2023/12/12 01:58:51;;;;;;;0.40;0.40;;;7.10;99.90;;;;;;4990494;28;20735;-89
2023/12/12 02:01:20;;;;;;;0.40;0.40;;;7.10;99.90;;;;;;4983197;28;20282;-87
2023/12/12 02:03:49;;;;;;;0.60;0.60;;;7.00;99.90;;;;;;4973879;28;20202;-85
2023/12/12 02:06:22;;;;;;;0.40;0.40;;;6.90;99.90;;;;;;4987352;28;20241;-87
2023/12/12 02:08:50;;;;;;;0.40;0.40;;;6.90;99.90;;;;;;4995144;28;20203;-87
2023/12/12 02:11:19;;;;;;;0.50;0.50;;;6.90;99.90;;;;;;4986067;28;20231;-88
2023/12/12 02:13:46;;;;;;;0.50;0.50;;;6.90;99.90;;;;;;4985366;28;20207;-85
2023/12/12 02:16:13;;;;;;;0.40;0.40;;;7.00;99.90;;;;;;4988435;28;20297;-89
2023/12/12 02:18:42;;;;;;;0.40;0.40;;;7.00;99.90;;;;;;4981270;28;21487;-86
2023/12/12 02:21:09;;;;;;;0.50;0.50;;;7.10;99.90;;;;;;4984683;28;20216;-84
2023/12/12 02:23:36;;;;;;;0.68;0.68;;;7.10;99.90;;;;;;4981781;28;20238;-87
2023/12/12 02:26:04;;;;;;;0.40;0.40;;;6.90;99.90;;;;;;4978796;28;20250;-84
2023/12/12 02:28:31;;;;;;;0.45;0.45;;;7.00;99.90;;;;;;4974399;28;20277;-86
2023/12/12 02:31:00;;;;;;;0.40;0.40;;;7.00;99.90;;;;;;4990776;28;20273;-87
2023/12/12 02:33:27;;;;;;;0.50;0.50;;;7.00;99.90;;;;;;4975676;28;20487;-85
2023/12/12 02:35:54;;;;;;;0.50;0.50;;;7.00;99.90;;;;;;4986281;28;20563;-84
2023/12/12 02:38:21;;;;;;;0.50;0.50;;;7.00;99.90;;;;;;4986776;28;20299;-85
2023/12/12 02:40:48;;;;;;;0.45;0.45;;;7.00;99.90;;;;;;4983451;28;20376;-80
2023/12/12 02:43:18;;;;;;;0.50;0.50;;;7.00;99.90;;;;;;4981802;28;20211;-87
2023/12/12 02:45:45;;;;;;;0.50;0.50;;;7.00;99.90;;;;;;4972876;28;20555;-86
2023/12/12 02:48:12;;;;;;;0.98;0.98;;;6.90;99.90;;;;;;4980794;28;20266;-83
2023/12/12 02:50:39;;;;;;;0.40;0.40;;;7.00;99.90;;;;;;4972473;28;20265;-83
2023/12/12 02:53:06;;;;;;;0.40;0.40;;;7.00;99.90;;;;;;4986938;28;20301;-87
2023/12/12 02:55:33;;;;;;;0.95;0.95;;;6.90;99.90;;;;;;4979788;28;20202;-84
2023/12/12 02:58:00;;;;;;;0.40;0.40;;;6.90;99.90;;;;;;4979515;28;20214;-87
2023/12/12 03:00:27;;;;;;;0.50;0.50;;;7.00;99.90;;;;;;4997367;28;20310;-85
2023/12/12 03:02:55;;;;;;;0.50;0.50;;;7.00;99.90;;;;;;4983444;28;20199;-81
2023/12/12 03:05:22;;;;;;;0.50;0.50;;;6.80;99.90;;;;;;4997729;28;20239;-82
2023/12/12 03:07:49;;;;;;;1.77;1.77;;;7.00;99.90;;;;;;4974409;28;20493;-82
2023/12/12 03:10:16;;;;;;;0.40;0.40;;;6.90;99.90;;;;;;4979190;28;20267;-82
2023/12/12 03:12:43;;;;;;;1.40;1.30;;;7.00;99.90;;;;;;4986964;28;20210;-82
2023/12/12 03:15:11;;;;;;;0.40;0.40;;;7.00;99.90;;;;;;4989445;28;20241;-83
2023/12/12 03:17:38;;;;;;;0.40;0.40;;;7.00;99.90;;;;;;4993073;28;20249;-85
2023/12/12 03:20:06;;;;;;;0.60;0.60;;;6.90;99.90;;;;;;4984376;28;20211;-81
2023/12/12 03:22:33;;;;;;;0.50;0.50;;;6.90;99.90;;;;;;4982965;28;20457;-84
2023/12/12 03:25:01;;;;;;;0.40;0.40;;;6.90;99.90;;;;;;4984487;28;20654;-84
2023/12/12 03:27:28;;;;;;;0.40;0.40;;;6.90;99.90;;;;;;4993729;28;20203;-78
2023/12/12 03:29:56;;;;;;;0.50;0.50;;;6.90;99.90;;;;;;4978194;28;20319;-83
2023/12/12 03:32:22;;;;;;;0.40;0.40;;;6.90;99.90;;;;;;4976283;28;20319;-83
2023/12/12 03:34:50;;;;;;;0.40;0.40;;;6.80;99.90;;;;;;4989968;28;20196;-85
2023/12/12 03:37:17;;;;;;;0.40;0.40;;;6.70;99.90;;;;;;4992899;28;20205;-82
2023/12/12 03:39:44;;;;;;;0.50;0.50;;;6.70;99.90;;;;;;4982316;28;20504;-85
2023/12/12 03:42:12;;;;;;;0.40;0.40;;;6.70;99.90;;;;;;4972046;28;20210;-84
2023/12/12 03:44:39;;;;;;;0.50;0.50;;;6.80;99.90;;;;;;4985834;28;20333;-80
2023/12/12 03:47:06;;;;;;;0.43;0.43;;;6.70;99.90;;;;;;4979626;28;20518;-85
2023/12/12 03:49:33;;;;;;;0.40;0.40;;;6.90;99.90;;;;;;4982791;28;20266;-83
2023/12/12 03:52:01;;;;;;;0.40;0.40;;;6.90;99.90;;;;;;4973185;28;20236;-85
2023/12/12 03:54:32;;;;;;;0.40;0.40;;;6.80;99.90;;;;;;4980801;28;20479;-82
2023/12/12 03:57:00;;;;;;;0.50;0.50;;;6.70;99.90;;;;;;4986033;28;20250;-86
2023/12/12 03:59:27;;;;;;;0.40;0.40;;;6.80;99.90;;;;;;4974660;28;20720;-85
2023/12/12 04:01:54;;;;;;;0.40;0.40;;;6.80;99.90;;;;;;4975441;28;20249;-85
2023/12/12 04:04:21;;;;;;;0.40;0.40;;;6.70;99.90;;;;;;4974514;28;20226;-83
2023/12/12 04:06:49;;;;;;;0.82;0.82;;;6.70;99.90;;;;;;4976721;28;20219;-83
2023/12/12 04:09:16;;;;;;;0.63;0.63;;;6.80;99.90;;;;;;4974628;28;20222;-84
2023/12/12 04:11:43;;;;;;;0.47;0.47;;;6.70;99.90;;;;;;4986444;28;20296;-84
2023/12/12 04:14:10;;;;;;;0.65;0.65;;;6.60;99.90;;;;;;4983236;28;20191;-84
2023/12/12 04:16:38;;;;;;;2.05;1.95;;;6.60;99.90;;;;;;4981746;28;20218;-83
2023/12/12 04:19:06;;;;;;;0.55;0.55;;;6.70;99.90;;;;;;4991166;28;20202;-81
2023/12/12 04:21:37;;;;;;;0.40;0.40;;;6.60;99.90;;;;;;4977037;28;20212;-82
2023/12/12 04:24:04;;;;;;;2.50;2.40;;;6.70;99.90;;;;;;4993061;28;20287;-83
2023/12/12 04:26:31;;;;;;;2.80;2.25;;;6.70;99.90;;;;;;4992354;28;20253;-83
2023/12/12 04:28:59;;;;;;;0.40;0.40;;;6.70;99.90;;;;;;4988097;28;20187;-84
2023/12/12 04:31:26;;;;;;;1.40;1.30;;;6.60;99.90;;;;;;4990263;28;20226;-85
2023/12/12 04:33:54;;;;;;;0.45;0.45;;;6.50;99.90;;;;;;4969761;28;20211;-88
2023/12/12 04:36:22;;;;;;;0.40;0.40;;;6.50;99.90;;;;;;4981455;28;20203;-85
2023/12/12 04:38:49;;;;;;;0.40;0.40;;;6.50;99.90;;;;;;4984176;28;20195;-85
2023/12/12 04:41:16;;;;;;;1.45;0.95;;;6.40;99.90;;;;;;4974573;28;20217;-85
2023/12/12 04:43:44;;;;;;;0.40;0.40;;;6.30;99.90;;;;;;4972190;28;20309;-89
2023/12/12 04:46:18;;;;;;;0.40;0.40;;;6.30;99.90;;;;;;4979015;28;20246;-87
2023/12/12 04:48:47;;;;;;;0.50;0.50;;;6.30;99.90;;;;;;4974389;28;20248;-84
2023/12/12 04:51:14;;;;;;;0.70;0.70;;;6.30;99.90;;;;;;4981479;28;20241;-85
2023/12/12 04:53:41;;;;;;;0.88;0.88;;;6.20;99.90;;;;;;4978654;28;20222;-84
2023/12/12 04:56:09;;;;;;;0.40;0.40;;;6.30;99.90;;;;;;4983786;28;20203;-85
2023/12/12 04:58:38;;;;;;;0.90;0.88;;;6.30;99.90;;;;;;4975332;28;20207;-88
2023/12/12 05:01:06;;;;;;;0.40;0.40;;;6.30;99.90;;;;;;5034516;23;20277;-82
2023/12/12 05:03:34;;;;;;;0.40;0.40;;;6.30;99.90;;;;;;4990582;28;20254;-89
2023/12/12 05:06:02;;;;;;;0.50;0.50;;;6.30;99.90;;;;;;4990299;28;20187;-86
2023/12/12 05:08:29;;;;;;;0.85;0.85;;;6.20;99.90;;;;;;4991145;28;20197;-84
2023/12/12 05:10:57;;;;;;;0.40;0.40;;;6.20;99.90;;;;;;5000797;28;20195;-83
2023/12/12 05:13:24;;;;;;;0.50;0.50;;;6.30;99.90;;;;;;5000488;28;20199;-82
2023/12/12 05:15:52;;;;;;;0.40;0.40;;;6.30;99.90;;;;;;4996145;28;20267;-83
2023/12/12 05:18:19;;;;;;;0.40;0.40;;;6.30;99.90;;;;;;4997232;28;20206;-83
2023/12/12 05:20:46;;;;;;;0.43;0.43;;;6.40;99.90;;;;;;4995976;28;20214;-83
2023/12/12 05:23:13;;;;;;;0.80;0.77;;;6.30;99.90;;;;;;4987405;28;20238;-81
2023/12/12 05:25:41;;;;;;;0.50;0.50;;;6.30;99.90;;;;;;4988503;28;20519;-82
2023/12/12 05:28:08;;;;;;;0.50;0.50;;;6.30;99.90;;;;;;4992505;28;20286;-83
2023/12/12 05:30:35;;;;;;;1.42;1.33;;;6.30;99.90;;;;;;4992127;28;20218;-84
2023/12/12 05:33:06;;;;;;;0.40;0.40;;;6.30;99.90;;;;;;4994192;28;20218;-89
2023/12/12 05:35:33;;;;;;;6.25;2.00;;;6.30;99.90;;;;;;5003044;28;20561;-85
2023/12/12 05:38:03;;;;;;;0.40;0.40;;;6.20;99.90;;;;;;4993576;28;20297;-81
2023/12/12 05:40:30;;;;;;;0.50;0.50;;;6.20;99.90;;;;;;4992620;28;20214;-86
2023/12/12 05:42:57;;;;;;;0.50;0.50;;;6.20;99.90;;;;;;4990394;28;20241;-84
2023/12/12 05:45:25;;;;;;;0.40;0.40;;;6.10;99.90;;;;;;4992768;28;20194;-83
2023/12/12 05:50:39;;;;;;;0.40;0.40;;;6.10;99.90;;;;;;5122987;23;20242;-82
2023/12/12 05:53:07;;;;;;;0.40;0.40;;;6.00;99.90;;;;;;4998742;28;20226;-82
2023/12/12 05:55:34;;;;;;;1.30;1.02;;;6.00;99.90;;;;;;4999443;28;20183;-85
2023/12/12 05:58:01;;;;;;;1.35;1.25;;;5.90;99.90;;;;;;5008042;28;20213;-82
2023/12/12 06:00:29;;;;;;;0.40;0.40;;;6.00;99.90;;;;;;4991800;28;20199;-85
2023/12/12 06:02:58;;;;;;;0.40;0.40;;;6.00;99.90;;;;;;4996468;28;20234;-87
2023/12/12 06:05:24;;;;;;;0.40;0.40;;;6.00;99.90;;;;;;4991246;28;20210;-87
2023/12/12 06:07:52;;;;;;;0.75;0.75;;;5.90;99.90;;;;;;4989838;28;20226;-83
2023/12/12 06:10:19;;;;;;;0.40;0.40;;;5.90;99.90;;;;;;4989417;28;20222;-84
2023/12/12 06:12:50;;;;;;;0.50;0.50;;;5.80;99.90;;;;;;5187927;23;20226;-83
2023/12/12 06:15:17;;;;;;;0.40;0.40;;;5.70;99.90;;;;;;4985750;28;20239;-82
2023/12/12 06:17:45;;;;;;;0.50;0.50;;;5.60;99.90;;;;;;4986936;28;20194;-87
2023/12/12 06:20:13;;;;;;;0.40;0.40;;;5.60;99.90;;;;;;5221627;23;20220;-88
2023/12/12 06:22:47;;;;;;;1.67;1.35;;;5.60;99.90;;;;;;5138657;23;20246;-85
2023/12/12 06:25:14;;;;;;;0.40;0.40;;;5.60;99.90;;;;;;4987424;28;20206;-87
2023/12/12 06:27:41;;;;;;;0.85;0.85;;;5.80;99.90;;;;;;4983504;28;20371;-84
2023/12/12 06:30:09;;;;;;;0.75;0.75;;;5.80;99.90;;;;;;4987015;28;20210;-91
2023/12/12 06:32:36;;;;;;;0.40;0.40;;;5.80;99.90;;;;;;4987615;28;20250;-88
2023/12/12 06:35:04;;;;;;;0.50;0.50;;;5.90;99.90;;;;;;5003785;28;20206;-85
2023/12/12 06:37:31;;;;;;;0.50;0.50;;;5.90;99.90;;;;;;4986855;28;20337;-87
2023/12/12 06:40:00;;;;;;;0.82;0.82;;;5.90;99.90;;;;;;4986092;28;20396;-80
2023/12/12 06:42:29;;;;;;;0.93;0.90;;;5.90;99.90;;;;;;4985937;28;20199;-81
2023/12/12 06:44:56;;;;;;;1.08;0.98;;;5.90;99.90;;;;;;4984376;28;20203;-80
2023/12/12 06:47:23;;;;;;;2.08;1.90;;;5.90;99.90;;;;;;4984344;28;20265;-85
2023/12/12 06:49:50;;;;;;;0.88;0.88;;;5.90;99.90;;;;;;4984763;28;20211;-86
2023/12/12 06:52:17;;;;;;;0.85;0.85;;;5.80;99.90;;;;;;4984146;28;20460;-83
2023/12/12 06:54:44;;;;;;;0.50;0.50;;;5.90;99.90;;;;;;4990218;28;20207;-86
2023/12/12 06:57:12;;;;;;;0.63;0.63;;;5.90;99.90;;;;;;4986937;28;20203;-80
2023/12/12 06:59:39;;;;;;;0.40;0.40;;;6.00;99.90;;;;;;4984728;28;20214;-82
2023/12/12 07:02:08;;;;;;;0.93;0.93;;;6.00;99.90;;;;;;5006587;28;20215;-84
2023/12/12 07:04:36;;;;;;;0.93;0.93;;;6.00;99.90;;;;;;5003639;28;20579;-87
2023/12/12 07:07:04;;;;;;;2.78;2.58;;;6.00;99.90;;;;;;4989227;28;20514;-85
2023/12/12 07:09:31;;;;;;;0.40;0.40;;;6.00;99.90;;;;;;4992140;28;20207;-85
2023/12/12 07:11:58;;;;;;;0.40;0.40;;;6.00;99.90;;;;;;4980819;28;20235;-86
2023/12/12 07:14:43;;;;;;;1.10;1.08;;;6.10;99.90;;;;;;4990997;28;20225;-88
2023/12/12 07:17:10;;;;;;;0.55;0.55;;;6.10;99.90;;;;;;4989147;28;20392;-87
2023/12/12 07:19:37;;;;;;;1.83;1.73;;;6.30;99.90;;;;;;4987090;28;20229;-83
2023/12/12 07:22:04;;;;;;;0.40;0.40;;;6.20;99.90;;;;;;4989581;28;20229;-88
2023/12/12 07:24:33;;;;;;;0.80;0.80;;;6.20;99.90;;;;;;4989922;28;20203;-88
2023/12/12 07:27:00;;;;;;;0.85;0.85;;;6.20;99.90;;;;;;5001507;28;20203;-87
2023/12/12 07:29:28;;;;;;;0.40;0.40;;;6.20;99.90;;;;;;4993007;28;20206;-86
2023/12/12 07:31:58;;;;;;;0.40;0.40;;;6.20;99.90;;;;;;4987377;28;20558;-87
2023/12/12 07:34:25;;;;;;;0.40;0.40;;;6.40;99.90;;;;;;4988849;28;20206;-81
2023/12/12 07:36:52;;;;;;;1.33;1.25;;;6.30;99.90;;;;;;4992460;28;20274;-83
2023/12/12 07:39:19;;;;;;;0.40;0.40;;;6.20;99.90;;;;;;4991806;28;20203;-83
2023/12/12 07:41:47;;;;;;;1.05;1.05;;;6.30;99.90;;;;;;5009261;28;20199;-88
2023/12/12 07:44:15;;;;;;;0.40;0.40;;;6.30;99.90;;;;;;4993083;28;20195;-87
2023/12/12 07:46:41;;;;;;;0.50;0.50;;;6.30;99.90;;;;;;4992356;28;20202;-86
2023/12/12 07:49:11;;;;;;;0.40;0.40;;;6.20;99.90;;;;;;4984887;28;20254;-87
2023/12/12 07:51:38;;;;;;;0.80;0.80;;;6.10;99.90;;;;;;4991990;28;20195;-82
2023/12/12 07:54:07;;;;;;;0.40;0.40;;;6.30;99.90;;;;;;4987853;28;20230;-85
2023/12/12 07:56:34;;;;;;;0.40;0.40;;;6.30;99.90;;;;;;4990052;28;20210;-83
2023/12/12 07:59:01;;;;;;;0.40;0.40;;;6.30;99.90;;;;;;4990064;28;20213;-84
2023/12/12 08:01:29;;;;;;;0.40;0.40;;;6.20;99.90;;;;;;4981771;28;20262;-86
2023/12/12 08:03:57;;;;;;;0.50;0.50;;;6.30;99.90;;;;;;4978053;28;20242;-86
2023/12/12 08:06:26;;;;;;;0.40;0.40;;;6.30;99.90;;;;;;4977352;28;20247;-85
2023/12/12 08:08:53;;;;;;;0.40;0.40;;;6.30;99.90;;;;;;4982625;28;20215;-81
2023/12/12 08:11:24;;;;;;;0.40;0.40;;;6.30;99.90;;;;;;4983903;28;20270;-82
2023/12/12 08:13:51;;;;;;;0.40;0.40;;;6.40;99.90;;;;;;4996088;28;20190;-81
2023/12/12 08:16:18;;;;;;;1.52;1.45;;;6.30;99.90;;;;;;4981522;28;20211;-80
2023/12/12 08:18:45;;;;;;;1.33;1.23;;;6.40;99.90;;;;;;4991680;28;20202;-89
2023/12/12 08:21:13;;;;;;;0.43;0.43;;;6.30;99.90;;;;;;4992804;28;20403;-80
2023/12/12 08:23:42;;;;;;;0.50;0.50;;;6.30;99.90;;;;;;4983392;28;20238;-82
2023/12/12 08:26:11;;;;;;;1.25;1.15;;;6.20;99.90;;;;;;4991751;28;20206;-88
2023/12/12 08:28:38;;;;;;;0.40;0.40;;;6.30;99.90;;;;;;4989250;28;20226;-86
2023/12/12 08:31:05;;;;;;;0.55;0.55;;;6.30;99.90;;;;;;5000529;28;20205;-88
2023/12/12 08:33:33;;;;;;;0.73;0.73;;;6.30;99.90;;;;;;4986277;28;20278;-82
2023/12/12 08:36:01;;;;;;;0.40;0.40;;;6.30;99.90;;;;;;4982780;28;20211;-86
2023/12/12 08:38:29;;;;;;;0.70;0.70;;;6.30;99.90;;;;;;4981835;28;20210;-84
2023/12/12 08:41:00;;;;;;;0.40;0.40;;;6.40;99.90;;;;;;4976184;28;20207;-88
2023/12/12 08:43:27;;;;;;;0.40;0.40;;;6.30;99.90;;;;;;4982576;28;20369;-81
2023/12/12 08:45:56;;;;;;;0.40;0.40;;;6.40;99.90;;;;;;4984997;28;20384;-85
2023/12/12 08:48:24;;;;;;;1.10;1.00;;;6.50;99.90;;;;;;4982549;28;20214;-87
2023/12/12 08:50:51;;;;;;;0.40;0.40;;;6.40;99.90;;;;;;4983231;28;20209;-88
2023/12/12 08:53:20;;;;;;;0.40;0.40;;;6.40;99.90;;;;;;4984120;28;20266;-88
2023/12/12 08:55:48;;;;;;;0.60;0.60;;;6.40;99.90;;;;;;4978645;28;20573;-84
2023/12/12 08:58:15;;;;;;;0.73;0.73;;;6.50;99.90;;;;;;4985230;28;20432;-87
2023/12/12 09:00:43;;;;;;;1.05;0.95;;;6.50;99.90;;;;;;4984668;28;20203;-81
2023/12/12 09:03:10;;;;;;;0.40;0.40;;;6.50;99.90;;;;;;4985123;28;20222;-83
2023/12/12 09:05:37;;;;;;;0.50;0.50;;;7.00;99.90;;;;;;4985581;28;20214;-87
2023/12/12 09:08:06;;;;;;;0.40;0.40;;;6.70;99.90;;;;;;4990340;28;20198;-89
2023/12/12 09:10:33;;;;;;;0.50;0.50;;;6.60;99.90;;;;;;4991684;28;20532;-88
2023/12/12 09:13:00;;;;;;;1.45;1.35;;;6.60;99.90;;;;;;5138379;23;20242;-85
2023/12/12 09:15:30;;;;;;;0.40;0.40;;;6.80;99.90;;;;;;5002146;28;20226;-88
2023/12/12 09:17:57;;;;;;;0.60;0.60;;;6.70;99.90;;;;;;5005863;28;20375;-85
2023/12/12 09:20:44;;;;;;;0.60;0.60;;;6.60;99.90;;;;;;4999472;28;20225;-88
2023/12/12 09:23:12;;;;;;;0.80;0.80;;;6.80;99.90;;;;;;4995692;28;20206;-85
2023/12/12 09:25:39;;;;;;;0.93;0.93;;;6.80;99.90;;;;;;4988058;28;20194;-88
2023/12/12 09:28:06;;;;;;;0.45;0.45;;;6.90;99.90;;;;;;5003379;28;20187;-87
2023/12/12 09:30:34;;;;;;;1.00;1.00;;;7.00;99.90;;;;;;5006249;28;20202;-88
2023/12/12 09:33:01;;;;;;;0.93;0.93;;;7.00;99.90;;;;;;4997543;28;20222;-88
2023/12/12 09:35:29;;;;;;;0.55;0.55;;;7.00;99.90;;;;;;5002690;28;20207;-87
2023/12/12 09:37:56;;;;;;;0.40;0.40;;;7.10;99.90;;;;;;4985353;28;20245;-85
2023/12/12 09:40:24;;;;;;;0.40;0.40;;;7.10;99.90;;;;;;4994358;28;20201;-89
2023/12/12 09:42:52;;;;;;;0.40;0.40;;;7.20;99.90;;;;;;5007770;28;20677;-89
2023/12/12 09:45:22;;;;;;;0.40;0.40;;;7.30;99.90;;;;;;5017661;28;20203;-87
2023/12/12 09:47:50;;;;;;;0.40;0.40;;;7.30;99.90;;;;;;5002169;28;20186;-88
2023/12/12 09:50:19;;;;;;;0.50;0.50;;;7.00;99.90;;;;;;5004994;28;20374;-90
2023/12/12 09:52:47;;;;;;;0.55;0.55;;;7.50;99.90;;;;;;5057331;23;20247;-88
2023/12/12 09:55:14;;;;;;;2.15;1.60;;;7.30;99.90;;;;;;5101999;23;20304;-88
2023/12/12 09:57:41;;;;;;;0.50;0.50;;;7.30;99.90;;;;;;5029141;28;20284;-80
2023/12/12 10:00:09;;;;;;;1.65;1.50;;;7.40;99.90;;;;;;5061478;23;20382;-81
2023/12/12 10:02:37;;;;;;;0.50;0.50;;;7.50;99.90;;;;;;5015629;28;20225;-84
2023/12/12 10:05:05;;;;;;;0.75;0.75;;;7.40;99.90;;;;;;5023974;28;20202;-87
2023/12/12 10:07:34;;;;;;;0.73;0.73;;;7.50;99.90;;;;;;5014913;28;20214;-85
2023/12/12 10:10:05;;;;;;;0.50;0.50;;;7.60;99.90;;;;;;5024157;28;20206;-84
2023/12/12 10:12:32;;;;;;;0.50;0.50;;;7.70;99.90;;;;;;5016278;28;20253;-87
2023/12/12 10:17:41;;;;;;;0.60;0.60;;;7.90;99.90;;;;;;5022833;23;20210;-87
2023/12/12 10:20:10;;;;;;;0.50;0.50;;;8.10;99.90;;;;;;5006128;28;20198;-88
2023/12/12 10:22:37;;;;;;;1.42;1.42;;;7.90;99.90;;;;;;4999484;28;20202;-80
2023/12/12 10:25:12;;;;;;;1.20;1.20;;;7.80;99.90;;;;;;5005486;28;20209;-88
2023/12/12 10:27:44;;;;;;;1.25;1.15;;;7.80;99.90;;;;;;4994179;28;20254;-82
2023/12/12 10:30:14;;;;;;;0.40;0.40;;;7.70;99.90;;;;;;5053168;23;20293;-83
2023/12/12 10:32:41;;;;;;;0.50;0.50;;;7.70;99.90;;;;;;5006639;28;20233;-86
2023/12/12 10:35:09;;;;;;;0.50;0.50;;;7.70;99.90;;;;;;4991834;28;20254;-81
2023/12/12 10:37:36;;;;;;;0.60;0.60;;;7.50;99.90;;;;;;5003804;28;20210;-85
2023/12/12 10:40:16;;;;;;;0.50;0.50;;;7.60;99.90;;;;;;4997783;28;20281;-87
2023/12/12 10:42:44;;;;;;;1.58;1.20;;;7.60;99.90;;;;;;4995545;28;20226;-88
2023/12/12 10:45:15;;;;;;;0.55;0.55;;;7.60;99.90;;;;;;4993513;28;20243;-87
2023/12/12 10:47:45;;;;;;;0.60;0.60;;;7.70;99.90;;;;;;5001340;28;20217;-87
2023/12/12 10:50:15;;;;;;;0.93;0.93;;;7.80;99.90;;;;;;5045538;23;20187;-86
2023/12/12 10:52:47;;;;;;;0.40;0.40;;;8.00;99.90;;;;;;5001536;28;20270;-89
2023/12/12 10:55:16;;;;;;;0.57;0.57;;;8.00;99.90;;;;;;4985636;28;20511;-87
2023/12/12 10:57:45;;;;;;;0.63;0.63;;;8.20;99.90;;;;;;4986847;28;20540;-88
2023/12/12 11:00:15;;;;;;;0.50;0.50;;;8.40;99.90;;;;;;4969693;28;20215;-86
2023/12/12 11:02:46;;;;;;;0.77;0.77;;;8.40;99.90;;;;;;4990063;28;20237;-86
2023/12/12 11:05:14;;;;;;;0.50;0.50;;;8.30;99.90;;;;;;4996288;28;20214;-89
2023/12/12 11:07:46;;;;;;;0.50;0.50;;;8.50;99.90;;;;;;4990642;28;20218;-89
2023/12/12 11:10:19;;;;;;;0.60;0.60;;;8.20;99.90;;;;;;4991923;28;20211;-89
2023/12/12 11:12:53;;;;;;;1.00;1.00;;;8.30;99.90;;;;;;4990438;28;20218;-88
2023/12/12 11:15:22;;;;;;;0.50;0.50;;;8.50;99.90;;;;;;5007439;28;20203;-87
2023/12/12 11:17:52;;;;;;;0.50;0.50;;;8.30;99.90;;;;;;4991730;28;20214;-89
2023/12/12 11:20:20;;;;;;;0.50;0.50;;;8.30;99.90;;;;;;5132825;23;20242;-87
2023/12/12 11:22:50;;;;;;;0.50;0.50;;;8.30;99.90;;;;;;4994948;28;20201;-88
2023/12/12 11:25:21;;;;;;;0.50;0.50;;;8.20;99.90;;;;;;4987512;28;20209;-86
2023/12/12 11:27:56;;;;;;;0.80;0.80;;;8.20;99.90;;;;;;5211329;22;20479;-88
2023/12/12 11:30:33;;;;;;;0.93;0.93;;;8.20;99.90;;;;;;5299398;23;20473;-87
2023/12/12 11:33:01;;;;;;;0.50;0.50;;;8.10;99.90;;;;;;5014064;28;20221;-88
2023/12/12 11:35:30;;;;;;;0.50;0.50;;;8.30;99.90;;;;;;5399972;23;20243;-88
2023/12/12 11:38:02;;;;;;;1.05;1.05;;;8.10;99.90;;;;;;5390394;23;20565;-87
2023/12/12 11:40:33;;;;;;;0.50;0.50;;;8.20;99.90;;;;;;5013029;28;20210;-86
2023/12/12 11:43:19;;;;;;;0.50;0.50;;;8.20;99.90;;;;;;5013076;28;20202;-86
2023/12/12 11:45:47;;;;;;;0.55;0.55;;;8.10;99.90;;;;;;5221110;23;20501;-84
2023/12/12 11:48:15;;;;;;;0.50;0.50;;;8.20;99.90;;;;;;5005645;28;20229;-87
2023/12/12 11:50:42;;;;;;;0.52;0.52;;;8.10;99.90;;;;;;5008247;28;20473;-86
2023/12/12 11:53:09;;;;;;;0.50;0.50;;;8.10;99.90;;;;;;5007949;28;20306;-88
2023/12/12 11:55:42;;;;;;;0.43;0.43;;;8.10;99.90;;;;;;5008966;28;20558;-87
2023/12/12 11:58:10;;;;;;;0.50;0.50;;;8.10;99.90;;;;;;5018637;28;20261;-88
2023/12/12 12:00:43;;;;;;;1.35;1.35;;;8.10;99.90;;;;;;5008597;28;20202;-87
2023/12/12 12:03:11;;;;;;;0.60;0.60;;;8.00;99.90;;;;;;5021580;28;20402;-87
2023/12/12 12:05:38;;;;;;;0.60;0.60;;;8.00;99.90;;;;;;5007682;28;20229;-84
2023/12/12 12:08:07;;;;;;;0.50;0.50;;;7.90;99.90;;;;;;5006951;28;20278;-88
2023/12/12 12:10:34;;;;;;;0.50;0.50;;;8.00;99.90;;;;;;5005139;28;20202;-86
2023/12/12 12:13:01;;;;;;;0.55;0.55;;;8.00;99.90;;;;;;5005668;28;20229;-87
2023/12/12 12:15:28;;;;;;;0.50;0.50;;;7.90;99.90;;;;;;5005272;28;20205;-86
2023/12/12 12:17:59;;;;;;;0.50;0.50;;;7.90;99.90;;;;;;5009224;28;20218;-87
2023/12/12 12:20:26;;;;;;;0.50;0.50;;;8.00;99.90;;;;;;5068983;23;20677;-87
2023/12/12 12:22:53;;;;;;;0.50;0.50;;;8.00;99.90;;;;;;4994518;28;20220;-83
2023/12/12 12:25:22;;;;;;;0.50;0.50;;;8.00;99.90;;;;;;5007732;28;20329;-81
2023/12/12 12:27:56;;;;;;;0.70;0.70;;;8.00;99.90;;;;;;4991083;28;20234;-82
2023/12/12 12:30:25;;;;;;;0.50;0.50;;;7.90;99.90;;;;;;4980644;28;20237;-82
2023/12/12 12:33:03;;;;;;;0.50;0.50;;;7.80;99.90;;;;;;4986834;28;20234;-85
2023/12/12 12:35:32;;;;;;;0.50;0.50;;;7.70;99.90;;;;;;4983555;28;20199;-85
2023/12/12 12:38:00;;;;;;;0.60;0.60;;;7.70;99.90;;;;;;4993004;28;20213;-84
2023/12/12 12:40:33;;;;;;;0.88;0.88;;;7.80;99.90;;;;;;4987769;28;20222;-85
2023/12/12 12:43:04;;;;;;;0.82;0.82;;;7.80;99.90;;;;;;5005633;28;20230;-85
2023/12/12 12:45:32;;;;;;;0.95;0.95;;;7.70;99.90;;;;;;5001830;28;20202;-85
2023/12/12 12:48:00;;;;;;;0.70;0.70;;;7.70;99.90;;;;;;4993687;28;20207;-82
2023/12/12 12:50:27;;;;;;;0.50;0.50;;;7.80;99.90;;;;;;4992596;28;20274;-87
2023/12/12 12:52:54;;;;;;;0.50;0.50;;;7.80;99.90;;;;;;4987779;28;20207;-82
2023/12/12 12:55:21;;;;;;;0.70;0.70;;;7.80;99.90;;;;;;4993324;28;20202;-83
2023/12/12 12:57:48;;;;;;;0.50;0.50;;;7.90;99.90;;;;;;5000313;28;20259;-86
2023/12/12 13:00:17;;;;;;;0.45;0.45;;;7.80;99.90;;;;;;4985202;28;20203;-84
2023/12/12 13:02:44;;;;;;;0.60;0.60;;;7.80;99.90;;;;;;4984612;28;20547;-87
2023/12/12 13:05:12;;;;;;;0.50;0.50;;;7.80;99.90;;;;;;5010747;28;20203;-86
2023/12/12 13:07:39;;;;;;;0.50;0.50;;;7.80;99.90;;;;;;4991427;28;20203;-86